sensor_id;sensor_type;location;lat;lon;timestamp;temperature;humidity
47336;DHT22;33068;51.990;5.926;2022-12-11T00:01:09;0.10;99.90
47336;DHT22;33068;51.990;5.926;2022-12-11T00:03:38;0.10;99.90
47336;DHT22;33068;51.990;5.926;2022-12-11T00:06:07;0.20;99.90
47336;DHT22;33068;51.990;5.926;2022-12-11T00:08:34;0.10;99.90
47336;DHT22;33068;51.990;5.926;2022-12-11T00:11:02;0.20;99.90
47336;DHT22;33068;51.990;5.926;2022-12-11T00:13:29;0.10;99.90
47336;DHT22;33068;51.990;5.926;2022-12-11T00:15:57;0.00;99.90
47336;DHT22;33068;51.990;5.926;2022-12-11T00:18:24;0.10;99.90
47336;DHT22;33068;51.990;5.926;2022-12-11T00:20:53;0.10;99.90
47336;DHT22;33068;51.990;5.926;2022-12-11T00:23:20;0.10;99.90
47336;DHT22;33068;51.990;5.926;2022-12-11T00:25:47;0.20;99.90
47336;DHT22;33068;51.990;5.926;2022-12-11T00:28:15;0.10;99.90
47336;DHT22;33068;51.990;5.926;2022-12-11T00:30:44;0.20;99.90
47336;DHT22;33068;51.990;5.926;2022-12-11T00:33:12;0.20;99.90
47336;DHT22;33068;51.990;5.926;2022-12-11T00:35:40;0.20;99.90
47336;DHT22;33068;51.990;5.926;2022-12-11T00:38:14;0.20;99.90
47336;DHT22;33068;51.990;5.926;2022-12-11T00:40:42;0.20;99.90
47336;DHT22;33068;51.990;5.926;2022-12-11T00:43:09;0.20;99.90
47336;DHT22;33068;51.990;5.926;2022-12-11T00:45:37;0.20;99.90
47336;DHT22;33068;51.990;5.926;2022-12-11T00:48:05;0.20;99.90
47336;DHT22;33068;51.990;5.926;2022-12-11T00:50:32;0.20;99.90
47336;DHT22;33068;51.990;5.926;2022-12-11T00:52:59;0.50;99.90
47336;DHT22;33068;51.990;5.926;2022-12-11T00:55:28;0.20;99.90
47336;DHT22;33068;51.990;5.926;2022-12-11T00:57:56;0.20;99.90
47336;DHT22;33068;51.990;5.926;2022-12-11T01:00:23;0.20;99.90
47336;DHT22;33068;51.990;5.926;2022-12-11T01:02:50;0.30;99.90
47336;DHT22;33068;51.990;5.926;2022-12-11T01:05:17;0.30;99.90
47336;DHT22;33068;51.990;5.926;2022-12-11T01:07:45;0.20;99.90
47336;DHT22;33068;51.990;5.926;2022-12-11T01:10:12;0.30;99.90
47336;DHT22;33068;51.990;5.926;2022-12-11T01:12:55;0.30;99.90
47336;DHT22;33068;51.990;5.926;2022-12-11T01:15:24;0.50;99.90
47336;DHT22;33068;51.990;5.926;2022-12-11T01:17:52;0.30;99.90
47336;DHT22;33068;51.990;5.926;2022-12-11T01:20:20;0.30;99.90
47336;DHT22;33068;51.990;5.926;2022-12-11T01:22:51;0.30;99.90
47336;DHT22;33068;51.990;5.926;2022-12-11T01:25:18;0.30;99.90
47336;DHT22;33068;51.990;5.926;2022-12-11T01:27:45;0.30;99.90
47336;DHT22;33068;51.990;5.926;2022-12-11T01:30:14;0.30;99.90
47336;DHT22;33068;51.990;5.926;2022-12-11T01:32:41;0.60;99.90
47336;DHT22;33068;51.990;5.926;2022-12-11T01:35:10;0.40;99.90
47336;DHT22;33068;51.990;5.926;2022-12-11T01:37:37;0.40;99.90
47336;DHT22;33068;51.990;5.926;2022-12-11T01:40:06;0.40;99.90
47336;DHT22;33068;51.990;5.926;2022-12-11T01:42:34;0.40;99.90
47336;DHT22;33068;51.990;5.926;2022-12-11T01:48:05;0.30;99.90
47336;DHT22;33068;51.990;5.926;2022-12-11T01:50:37;0.30;99.90
47336;DHT22;33068;51.990;5.926;2022-12-11T01:53:07;0.30;99.90
47336;DHT22;33068;51.990;5.926;2022-12-11T01:55:37;0.30;99.90
47336;DHT22;33068;51.990;5.926;2022-12-11T01:58:05;0.30;99.90
47336;DHT22;33068;51.990;5.926;2022-12-11T02:00:32;0.40;99.90
47336;DHT22;33068;51.990;5.926;2022-12-11T02:03:01;0.40;99.90
47336;DHT22;33068;51.990;5.926;2022-12-11T02:05:28;0.40;99.90
47336;DHT22;33068;51.990;5.926;2022-12-11T02:07:58;0.40;99.90
47336;DHT22;33068;51.990;5.926;2022-12-11T02:10:31;0.40;99.90
47336;DHT22;33068;51.990;5.926;2022-12-11T02:13:06;0.30;99.90
47336;DHT22;33068;51.990;5.926;2022-12-11T02:15:39;0.60;99.90
47336;DHT22;33068;51.990;5.926;2022-12-11T02:18:18;0.40;99.90
47336;DHT22;33068;51.990;5.926;2022-12-11T02:20:51;0.40;99.90
47336;DHT22;33068;51.990;5.926;2022-12-11T02:23:52;0.40;99.90
47336;DHT22;33068;51.990;5.926;2022-12-11T02:26:32;0.40;99.90
47336;DHT22;33068;51.990;5.926;2022-12-11T02:29:05;0.40;99.90
47336;DHT22;33068;51.990;5.926;2022-12-11T02:31:36;0.40;99.90
47336;DHT22;33068;51.990;5.926;2022-12-11T02:34:09;0.40;99.90
47336;DHT22;33068;51.990;5.926;2022-12-11T02:36:40;0.40;99.90
47336;DHT22;33068;51.990;5.926;2022-12-11T02:39:10;0.40;99.90
47336;DHT22;33068;51.990;5.926;2022-12-11T02:41:39;0.40;99.90
47336;DHT22;33068;51.990;5.926;2022-12-11T02:44:11;0.40;99.90
47336;DHT22;33068;51.990;5.926;2022-12-11T02:46:40;0.40;99.90
47336;DHT22;33068;51.990;5.926;2022-12-11T02:49:11;0.40;99.90
47336;DHT22;33068;51.990;5.926;2022-12-11T02:51:40;0.40;99.90
47336;DHT22;33068;51.990;5.926;2022-12-11T02:54:11;0.40;99.90
47336;DHT22;33068;51.990;5.926;2022-12-11T02:56:42;0.40;99.90
47336;DHT22;33068;51.990;5.926;2022-12-11T02:59:14;0.40;99.90
47336;DHT22;33068;51.990;5.926;2022-12-11T03:01:45;0.40;99.90
47336;DHT22;33068;51.990;5.926;2022-12-11T03:04:13;0.40;99.90
47336;DHT22;33068;51.990;5.926;2022-12-11T03:06:42;0.50;99.90
47336;DHT22;33068;51.990;5.926;2022-12-11T03:09:11;0.50;99.90
47336;DHT22;33068;51.990;5.926;2022-12-11T03:11:38;0.50;99.90
47336;DHT22;33068;51.990;5.926;2022-12-11T03:14:06;0.40;99.90
47336;DHT22;33068;51.990;5.926;2022-12-11T03:16:38;0.50;99.90
47336;DHT22;33068;51.990;5.926;2022-12-11T03:19:12;0.50;99.90
47336;DHT22;33068;51.990;5.926;2022-12-11T03:21:45;0.40;99.90
47336;DHT22;33068;51.990;5.926;2022-12-11T03:24:19;0.40;99.90
47336;DHT22;33068;51.990;5.926;2022-12-11T03:26:54;0.50;99.90
47336;DHT22;33068;51.990;5.926;2022-12-11T03:29:24;0.50;99.90
47336;DHT22;33068;51.990;5.926;2022-12-11T03:31:57;0.50;99.90
47336;DHT22;33068;51.990;5.926;2022-12-11T03:34:28;0.50;99.90
47336;DHT22;33068;51.990;5.926;2022-12-11T03:36:59;0.50;99.90
47336;DHT22;33068;51.990;5.926;2022-12-11T03:39:29;0.50;99.90
47336;DHT22;33068;51.990;5.926;2022-12-11T03:42:00;0.60;99.90
47336;DHT22;33068;51.990;5.926;2022-12-11T03:44:28;0.50;99.90
47336;DHT22;33068;51.990;5.926;2022-12-11T03:46:59;0.50;99.90
47336;DHT22;33068;51.990;5.926;2022-12-11T03:49:30;0.60;99.90
47336;DHT22;33068;51.990;5.926;2022-12-11T03:51:59;0.60;99.90
47336;DHT22;33068;51.990;5.926;2022-12-11T03:54:26;0.60;99.90
47336;DHT22;33068;51.990;5.926;2022-12-11T03:56:56;0.60;99.90
47336;DHT22;33068;51.990;5.926;2022-12-11T03:59:23;0.60;99.90
47336;DHT22;33068;51.990;5.926;2022-12-11T04:01:50;0.60;99.90
47336;DHT22;33068;51.990;5.926;2022-12-11T04:04:19;0.50;99.90
47336;DHT22;33068;51.990;5.926;2022-12-11T04:06:46;0.60;99.90
47336;DHT22;33068;51.990;5.926;2022-12-11T04:09:13;0.60;99.90
47336;DHT22;33068;51.990;5.926;2022-12-11T04:11:40;0.60;99.90
47336;DHT22;33068;51.990;5.926;2022-12-11T04:14:10;0.60;99.90
47336;DHT22;33068;51.990;5.926;2022-12-11T04:16:55;0.60;99.90
47336;DHT22;33068;51.990;5.926;2022-12-11T04:19:24;0.60;99.90
47336;DHT22;33068;51.990;5.926;2022-12-11T04:22:10;0.60;99.90
47336;DHT22;33068;51.990;5.926;2022-12-11T04:24:55;0.60;99.90
47336;DHT22;33068;51.990;5.926;2022-12-11T04:27:22;0.60;99.90
47336;DHT22;33068;51.990;5.926;2022-12-11T04:30:09;0.60;99.90
47336;DHT22;33068;51.990;5.926;2022-12-11T04:32:37;0.60;99.90
47336;DHT22;33068;51.990;5.926;2022-12-11T04:35:07;0.60;99.90
47336;DHT22;33068;51.990;5.926;2022-12-11T04:37:35;0.60;99.90
47336;DHT22;33068;51.990;5.926;2022-12-11T04:40:02;0.70;99.90
47336;DHT22;33068;51.990;5.926;2022-12-11T04:42:29;0.70;99.90
47336;DHT22;33068;51.990;5.926;2022-12-11T04:44:56;0.70;99.90
47336;DHT22;33068;51.990;5.926;2022-12-11T04:47:24;0.70;99.90
47336;DHT22;33068;51.990;5.926;2022-12-11T04:49:52;0.70;99.90
47336;DHT22;33068;51.990;5.926;2022-12-11T04:52:20;0.70;99.90
47336;DHT22;33068;51.990;5.926;2022-12-11T04:54:47;0.70;99.90
47336;DHT22;33068;51.990;5.926;2022-12-11T04:57:16;0.70;99.90
47336;DHT22;33068;51.990;5.926;2022-12-11T04:59:43;0.70;99.90
47336;DHT22;33068;51.990;5.926;2022-12-11T05:02:10;0.70;99.90
47336;DHT22;33068;51.990;5.926;2022-12-11T05:04:37;0.70;99.90
47336;DHT22;33068;51.990;5.926;2022-12-11T05:07:04;0.70;99.90
47336;DHT22;33068;51.990;5.926;2022-12-11T05:09:33;0.70;99.90
47336;DHT22;33068;51.990;5.926;2022-12-11T05:12:00;0.70;99.90
47336;DHT22;33068;51.990;5.926;2022-12-11T05:14:27;0.80;99.90
47336;DHT22;33068;51.990;5.926;2022-12-11T05:16:56;0.80;99.90
47336;DHT22;33068;51.990;5.926;2022-12-11T05:19:24;0.80;99.90
47336;DHT22;33068;51.990;5.926;2022-12-11T05:21:51;0.80;99.90
47336;DHT22;33068;51.990;5.926;2022-12-11T05:24:18;0.80;99.90
47336;DHT22;33068;51.990;5.926;2022-12-11T05:26:46;0.70;99.90
47336;DHT22;33068;51.990;5.926;2022-12-11T05:29:13;0.70;99.90
47336;DHT22;33068;51.990;5.926;2022-12-11T05:31:40;0.70;99.90
47336;DHT22;33068;51.990;5.926;2022-12-11T05:34:07;0.80;99.90
47336;DHT22;33068;51.990;5.926;2022-12-11T05:36:34;0.80;99.90
47336;DHT22;33068;51.990;5.926;2022-12-11T05:39:02;0.80;99.90
47336;DHT22;33068;51.990;5.926;2022-12-11T05:41:31;0.80;99.90
47336;DHT22;33068;51.990;5.926;2022-12-11T05:44:00;0.70;99.90
47336;DHT22;33068;51.990;5.926;2022-12-11T05:46:28;0.90;99.90
47336;DHT22;33068;51.990;5.926;2022-12-11T05:48:57;0.80;99.90
47336;DHT22;33068;51.990;5.926;2022-12-11T05:51:25;0.80;99.90
47336;DHT22;33068;51.990;5.926;2022-12-11T05:53:54;0.70;99.90
47336;DHT22;33068;51.990;5.926;2022-12-11T05:56:22;0.80;99.90
47336;DHT22;33068;51.990;5.926;2022-12-11T05:58:51;0.80;99.90
47336;DHT22;33068;51.990;5.926;2022-12-11T06:01:22;0.80;99.90
47336;DHT22;33068;51.990;5.926;2022-12-11T06:03:50;0.80;99.90
47336;DHT22;33068;51.990;5.926;2022-12-11T06:06:17;0.80;99.90
47336;DHT22;33068;51.990;5.926;2022-12-11T06:08:44;0.80;99.90
47336;DHT22;33068;51.990;5.926;2022-12-11T06:11:12;0.80;99.90
47336;DHT22;33068;51.990;5.926;2022-12-11T06:13:39;0.70;99.90
47336;DHT22;33068;51.990;5.926;2022-12-11T06:16:07;0.80;99.90
47336;DHT22;33068;51.990;5.926;2022-12-11T06:18:37;0.80;99.90
47336;DHT22;33068;51.990;5.926;2022-12-11T06:21:15;0.80;99.90
47336;DHT22;33068;51.990;5.926;2022-12-11T06:23:44;0.80;99.90
47336;DHT22;33068;51.990;5.926;2022-12-11T06:26:12;0.80;99.90
47336;DHT22;33068;51.990;5.926;2022-12-11T06:28:40;0.80;99.90
47336;DHT22;33068;51.990;5.926;2022-12-11T06:31:07;0.80;99.90
47336;DHT22;33068;51.990;5.926;2022-12-11T06:33:35;0.80;99.90
47336;DHT22;33068;51.990;5.926;2022-12-11T06:36:04;0.80;99.90
47336;DHT22;33068;51.990;5.926;2022-12-11T06:38:31;0.80;99.90
47336;DHT22;33068;51.990;5.926;2022-12-11T06:41:00;0.80;99.90
47336;DHT22;33068;51.990;5.926;2022-12-11T06:43:29;0.80;99.90
47336;DHT22;33068;51.990;5.926;2022-12-11T06:45:56;0.80;99.90
47336;DHT22;33068;51.990;5.926;2022-12-11T06:48:24;0.80;99.90
47336;DHT22;33068;51.990;5.926;2022-12-11T06:50:52;1.00;99.90
47336;DHT22;33068;51.990;5.926;2022-12-11T06:53:19;0.80;99.90
47336;DHT22;33068;51.990;5.926;2022-12-11T06:55:46;1.00;99.90
47336;DHT22;33068;51.990;5.926;2022-12-11T06:58:13;0.80;99.90
47336;DHT22;33068;51.990;5.926;2022-12-11T07:00:41;0.80;99.90
47336;DHT22;33068;51.990;5.926;2022-12-11T07:03:09;0.70;99.90
47336;DHT22;33068;51.990;5.926;2022-12-11T07:05:36;0.70;99.90
47336;DHT22;33068;51.990;5.926;2022-12-11T07:08:05;0.70;99.90
47336;DHT22;33068;51.990;5.926;2022-12-11T07:10:32;0.70;99.90
47336;DHT22;33068;51.990;5.926;2022-12-11T07:12:59;0.70;99.90
47336;DHT22;33068;51.990;5.926;2022-12-11T07:15:27;0.70;99.90
47336;DHT22;33068;51.990;5.926;2022-12-11T07:17:54;0.70;99.90
47336;DHT22;33068;51.990;5.926;2022-12-11T07:20:21;0.70;99.90
47336;DHT22;33068;51.990;5.926;2022-12-11T07:22:48;0.70;99.90
47336;DHT22;33068;51.990;5.926;2022-12-11T07:25:17;0.70;99.90
47336;DHT22;33068;51.990;5.926;2022-12-11T07:27:44;0.70;99.90
47336;DHT22;33068;51.990;5.926;2022-12-11T07:30:12;0.70;99.90
47336;DHT22;33068;51.990;5.926;2022-12-11T07:32:40;0.70;99.90
47336;DHT22;33068;51.990;5.926;2022-12-11T07:35:09;0.70;99.90
47336;DHT22;33068;51.990;5.926;2022-12-11T07:37:39;0.70;99.90
47336;DHT22;33068;51.990;5.926;2022-12-11T07:40:07;0.70;99.90
47336;DHT22;33068;51.990;5.926;2022-12-11T07:42:36;0.70;99.90
47336;DHT22;33068;51.990;5.926;2022-12-11T07:45:03;0.70;99.90
47336;DHT22;33068;51.990;5.926;2022-12-11T07:47:32;0.60;99.90
47336;DHT22;33068;51.990;5.926;2022-12-11T07:49:59;0.60;99.90
47336;DHT22;33068;51.990;5.926;2022-12-11T07:52:27;0.60;99.90
47336;DHT22;33068;51.990;5.926;2022-12-11T07:54:54;0.60;99.90
47336;DHT22;33068;51.990;5.926;2022-12-11T07:57:21;0.70;99.90
47336;DHT22;33068;51.990;5.926;2022-12-11T07:59:49;0.60;99.90
47336;DHT22;33068;51.990;5.926;2022-12-11T08:02:16;0.60;99.90
47336;DHT22;33068;51.990;5.926;2022-12-11T08:04:43;0.60;99.90
47336;DHT22;33068;51.990;5.926;2022-12-11T08:07:10;0.60;99.90
47336;DHT22;33068;51.990;5.926;2022-12-11T08:09:38;0.80;99.90
47336;DHT22;33068;51.990;5.926;2022-12-11T08:12:05;0.60;99.90
47336;DHT22;33068;51.990;5.926;2022-12-11T08:14:32;0.60;99.90
47336;DHT22;33068;51.990;5.926;2022-12-11T08:17:01;0.60;99.90
47336;DHT22;33068;51.990;5.926;2022-12-11T08:19:28;0.60;99.90
47336;DHT22;33068;51.990;5.926;2022-12-11T08:21:55;0.60;99.90
47336;DHT22;33068;51.990;5.926;2022-12-11T08:24:22;0.60;99.90
47336;DHT22;33068;51.990;5.926;2022-12-11T08:26:49;0.60;99.90
47336;DHT22;33068;51.990;5.926;2022-12-11T08:29:16;0.60;99.90
47336;DHT22;33068;51.990;5.926;2022-12-11T08:31:43;0.60;99.90
47336;DHT22;33068;51.990;5.926;2022-12-11T08:34:12;0.60;99.90
47336;DHT22;33068;51.990;5.926;2022-12-11T08:36:39;0.60;99.90
47336;DHT22;33068;51.990;5.926;2022-12-11T08:39:06;0.70;99.90
47336;DHT22;33068;51.990;5.926;2022-12-11T08:41:33;0.90;99.90
47336;DHT22;33068;51.990;5.926;2022-12-11T08:44:00;0.70;99.90
47336;DHT22;33068;51.990;5.926;2022-12-11T08:46:29;0.60;99.90
47336;DHT22;33068;51.990;5.926;2022-12-11T08:48:57;0.70;99.90
47336;DHT22;33068;51.990;5.926;2022-12-11T08:51:27;0.70;99.90
47336;DHT22;33068;51.990;5.926;2022-12-11T08:53:55;0.70;99.90
47336;DHT22;33068;51.990;5.926;2022-12-11T08:56:23;0.70;99.90
47336;DHT22;33068;51.990;5.926;2022-12-11T08:58:51;0.70;99.90
47336;DHT22;33068;51.990;5.926;2022-12-11T09:01:20;0.70;99.90
47336;DHT22;33068;51.990;5.926;2022-12-11T09:03:48;0.80;99.90
47336;DHT22;33068;51.990;5.926;2022-12-11T09:06:17;0.70;99.90
47336;DHT22;33068;51.990;5.926;2022-12-11T09:08:47;0.70;99.90
47336;DHT22;33068;51.990;5.926;2022-12-11T09:11:17;0.70;99.90
47336;DHT22;33068;51.990;5.926;2022-12-11T09:13:44;0.70;99.90
47336;DHT22;33068;51.990;5.926;2022-12-11T09:16:14;0.70;99.90
47336;DHT22;33068;51.990;5.926;2022-12-11T09:18:43;0.70;99.90
47336;DHT22;33068;51.990;5.926;2022-12-11T09:21:13;0.80;99.90
47336;DHT22;33068;51.990;5.926;2022-12-11T09:23:40;0.80;99.90
47336;DHT22;33068;51.990;5.926;2022-12-11T09:26:10;0.80;99.90
47336;DHT22;33068;51.990;5.926;2022-12-11T09:28:38;0.80;99.90
47336;DHT22;33068;51.990;5.926;2022-12-11T09:31:07;0.70;99.90
47336;DHT22;33068;51.990;5.926;2022-12-11T09:33:35;0.80;99.90
47336;DHT22;33068;51.990;5.926;2022-12-11T09:36:03;0.80;99.90
47336;DHT22;33068;51.990;5.926;2022-12-11T09:38:31;0.80;99.90
47336;DHT22;33068;51.990;5.926;2022-12-11T09:40:59;0.80;99.90
47336;DHT22;33068;51.990;5.926;2022-12-11T09:43:39;1.00;99.90
47336;DHT22;33068;51.990;5.926;2022-12-11T09:46:10;0.90;99.90
47336;DHT22;33068;51.990;5.926;2022-12-11T09:48:39;0.90;99.90
47336;DHT22;33068;51.990;5.926;2022-12-11T09:51:14;0.90;99.90
47336;DHT22;33068;51.990;5.926;2022-12-11T09:53:44;0.90;99.90
47336;DHT22;33068;51.990;5.926;2022-12-11T09:56:16;0.90;99.90
47336;DHT22;33068;51.990;5.926;2022-12-11T09:58:56;0.90;99.90
47336;DHT22;33068;51.990;5.926;2022-12-11T10:01:34;0.90;99.90
47336;DHT22;33068;51.990;5.926;2022-12-11T10:04:25;0.90;99.90
47336;DHT22;33068;51.990;5.926;2022-12-11T10:07:02;0.90;99.90
47336;DHT22;33068;51.990;5.926;2022-12-11T10:09:38;0.90;99.90
47336;DHT22;33068;51.990;5.926;2022-12-11T10:12:17;1.00;99.90
47336;DHT22;33068;51.990;5.926;2022-12-11T10:14:58;1.00;99.90
47336;DHT22;33068;51.990;5.926;2022-12-11T10:17:31;1.00;99.90
47336;DHT22;33068;51.990;5.926;2022-12-11T10:20:04;1.00;99.90
47336;DHT22;33068;51.990;5.926;2022-12-11T10:22:39;1.00;99.90
47336;DHT22;33068;51.990;5.926;2022-12-11T10:25:14;1.00;99.90
47336;DHT22;33068;51.990;5.926;2022-12-11T10:27:42;1.10;99.90
47336;DHT22;33068;51.990;5.926;2022-12-11T10:30:15;1.10;99.90
47336;DHT22;33068;51.990;5.926;2022-12-11T10:32:50;1.10;99.90
47336;DHT22;33068;51.990;5.926;2022-12-11T10:35:23;1.20;99.90
47336;DHT22;33068;51.990;5.926;2022-12-11T10:37:54;1.20;99.90
47336;DHT22;33068;51.990;5.926;2022-12-11T10:40:23;1.20;99.90
47336;DHT22;33068;51.990;5.926;2022-12-11T10:42:52;1.20;99.90
47336;DHT22;33068;51.990;5.926;2022-12-11T10:45:20;1.20;99.90
47336;DHT22;33068;51.990;5.926;2022-12-11T10:47:47;1.20;99.90
47336;DHT22;33068;51.990;5.926;2022-12-11T10:50:22;1.20;99.90
47336;DHT22;33068;51.990;5.926;2022-12-11T10:52:50;1.30;99.90
47336;DHT22;33068;51.990;5.926;2022-12-11T10:55:20;1.20;99.90
47336;DHT22;33068;51.990;5.926;2022-12-11T10:57:54;1.30;99.90
47336;DHT22;33068;51.990;5.926;2022-12-11T11:00:34;1.40;99.90
47336;DHT22;33068;51.990;5.926;2022-12-11T11:03:03;1.30;99.90
47336;DHT22;33068;51.990;5.926;2022-12-11T11:05:33;1.30;99.90
47336;DHT22;33068;51.990;5.926;2022-12-11T11:08:11;1.20;99.90
47336;DHT22;33068;51.990;5.926;2022-12-11T11:10:49;1.30;99.90
47336;DHT22;33068;51.990;5.926;2022-12-11T11:13:19;1.40;99.90
47336;DHT22;33068;51.990;5.926;2022-12-11T11:15:47;1.50;99.90
47336;DHT22;33068;51.990;5.926;2022-12-11T11:18:20;1.40;99.90
47336;DHT22;33068;51.990;5.926;2022-12-11T11:20:50;1.30;99.90
47336;DHT22;33068;51.990;5.926;2022-12-11T11:23:18;1.40;99.90
47336;DHT22;33068;51.990;5.926;2022-12-11T11:25:51;1.40;99.90
47336;DHT22;33068;51.990;5.926;2022-12-11T11:28:21;1.30;99.90
47336;DHT22;33068;51.990;5.926;2022-12-11T11:31:02;1.30;99.90
47336;DHT22;33068;51.990;5.926;2022-12-11T11:33:31;1.30;99.90
47336;DHT22;33068;51.990;5.926;2022-12-11T11:36:02;1.30;99.90
47336;DHT22;33068;51.990;5.926;2022-12-11T11:38:32;1.30;99.90
47336;DHT22;33068;51.990;5.926;2022-12-11T11:41:08;1.40;99.90
47336;DHT22;33068;51.990;5.926;2022-12-11T11:43:42;1.30;99.90
47336;DHT22;33068;51.990;5.926;2022-12-11T11:46:15;1.30;99.90
47336;DHT22;33068;51.990;5.926;2022-12-11T11:48:49;1.20;99.90
47336;DHT22;33068;51.990;5.926;2022-12-11T11:51:22;1.40;99.90
47336;DHT22;33068;51.990;5.926;2022-12-11T11:54:00;1.30;99.90
47336;DHT22;33068;51.990;5.926;2022-12-11T11:56:30;1.20;99.90
47336;DHT22;33068;51.990;5.926;2022-12-11T11:59:04;1.20;99.90
47336;DHT22;33068;51.990;5.926;2022-12-11T12:01:34;1.50;99.90
47336;DHT22;33068;51.990;5.926;2022-12-11T12:04:03;1.30;99.90
47336;DHT22;33068;51.990;5.926;2022-12-11T12:06:41;1.30;99.90
47336;DHT22;33068;51.990;5.926;2022-12-11T12:09:19;1.00;99.90
47336;DHT22;33068;51.990;5.926;2022-12-11T12:12:04;1.30;99.90
47336;DHT22;33068;51.990;5.926;2022-12-11T12:14:45;1.20;99.90
47336;DHT22;33068;51.990;5.926;2022-12-11T12:17:25;1.30;99.90
47336;DHT22;33068;51.990;5.926;2022-12-11T12:20:03;1.40;99.90
47336;DHT22;33068;51.990;5.926;2022-12-11T12:22:51;1.30;99.90
47336;DHT22;33068;51.990;5.926;2022-12-11T12:25:26;1.20;99.90
47336;DHT22;33068;51.990;5.926;2022-12-11T12:28:01;1.20;99.90
47336;DHT22;33068;51.990;5.926;2022-12-11T12:30:37;1.30;99.90
47336;DHT22;33068;51.990;5.926;2022-12-11T12:33:20;1.30;99.90
47336;DHT22;33068;51.990;5.926;2022-12-11T12:35:57;1.20;99.90
47336;DHT22;33068;51.990;5.926;2022-12-11T12:38:35;1.20;99.90
47336;DHT22;33068;51.990;5.926;2022-12-11T12:41:12;1.30;99.90
47336;DHT22;33068;51.990;5.926;2022-12-11T12:44:07;1.20;99.90
47336;DHT22;33068;51.990;5.926;2022-12-11T12:46:55;1.20;99.90
47336;DHT22;33068;51.990;5.926;2022-12-11T12:49:34;1.20;99.90
47336;DHT22;33068;51.990;5.926;2022-12-11T12:52:04;1.20;99.90
47336;DHT22;33068;51.990;5.926;2022-12-11T12:54:33;1.20;99.90
47336;DHT22;33068;51.990;5.926;2022-12-11T12:57:02;1.40;99.90
47336;DHT22;33068;51.990;5.926;2022-12-11T12:59:29;1.10;99.90
47336;DHT22;33068;51.990;5.926;2022-12-11T13:01:59;1.20;99.90
47336;DHT22;33068;51.990;5.926;2022-12-11T13:04:38;1.10;99.90
47336;DHT22;33068;51.990;5.926;2022-12-11T13:07:15;1.30;99.90
47336;DHT22;33068;51.990;5.926;2022-12-11T13:09:57;1.20;99.90
47336;DHT22;33068;51.990;5.926;2022-12-11T13:12:32;1.20;99.90
47336;DHT22;33068;51.990;5.926;2022-12-11T13:15:00;1.20;99.90
47336;DHT22;33068;51.990;5.926;2022-12-11T13:17:35;1.20;99.90
47336;DHT22;33068;51.990;5.926;2022-12-11T13:20:14;1.20;99.90
47336;DHT22;33068;51.990;5.926;2022-12-11T13:25:53;1.20;99.90
47336;DHT22;33068;51.990;5.926;2022-12-11T13:28:27;1.20;99.90
47336;DHT22;33068;51.990;5.926;2022-12-11T13:31:23;1.20;99.90
47336;DHT22;33068;51.990;5.926;2022-12-11T13:33:55;1.20;99.90
47336;DHT22;33068;51.990;5.926;2022-12-11T13:36:27;1.10;99.90
47336;DHT22;33068;51.990;5.926;2022-12-11T13:38:59;1.10;99.90
47336;DHT22;33068;51.990;5.926;2022-12-11T13:41:27;1.40;99.90
47336;DHT22;33068;51.990;5.926;2022-12-11T13:43:54;1.00;99.90
47336;DHT22;33068;51.990;5.926;2022-12-11T13:46:25;1.20;99.90
47336;DHT22;33068;51.990;5.926;2022-12-11T13:48:55;1.00;99.90
47336;DHT22;33068;51.990;5.926;2022-12-11T13:51:28;1.00;99.90
47336;DHT22;33068;51.990;5.926;2022-12-11T13:54:06;1.00;99.90
47336;DHT22;33068;51.990;5.926;2022-12-11T13:56:33;1.10;99.90
47336;DHT22;33068;51.990;5.926;2022-12-11T13:59:00;1.10;99.90
47336;DHT22;33068;51.990;5.926;2022-12-11T14:01:30;1.10;99.90
47336;DHT22;33068;51.990;5.926;2022-12-11T14:04:01;1.10;99.90
47336;DHT22;33068;51.990;5.926;2022-12-11T14:06:32;1.10;99.90
47336;DHT22;33068;51.990;5.926;2022-12-11T14:09:00;1.10;99.90
47336;DHT22;33068;51.990;5.926;2022-12-11T14:11:32;1.10;99.90
47336;DHT22;33068;51.990;5.926;2022-12-11T14:14:02;1.10;99.90
47336;DHT22;33068;51.990;5.926;2022-12-11T14:16:30;1.10;99.90
47336;DHT22;33068;51.990;5.926;2022-12-11T14:19:01;1.10;99.90
47336;DHT22;33068;51.990;5.926;2022-12-11T14:21:31;1.00;99.90
47336;DHT22;33068;51.990;5.926;2022-12-11T14:23:59;1.10;99.90
47336;DHT22;33068;51.990;5.926;2022-12-11T14:26:29;0.90;99.90
47336;DHT22;33068;51.990;5.926;2022-12-11T14:28:58;1.10;99.90
47336;DHT22;33068;51.990;5.926;2022-12-11T14:31:28;0.90;99.90
47336;DHT22;33068;51.990;5.926;2022-12-11T14:34:01;0.90;99.90
47336;DHT22;33068;51.990;5.926;2022-12-11T14:36:32;1.10;99.90
47336;DHT22;33068;51.990;5.926;2022-12-11T14:39:03;1.00;99.90
47336;DHT22;33068;51.990;5.926;2022-12-11T14:41:40;1.00;99.90
47336;DHT22;33068;51.990;5.926;2022-12-11T14:44:13;1.00;99.90
47336;DHT22;33068;51.990;5.926;2022-12-11T14:46:44;1.00;99.90
47336;DHT22;33068;51.990;5.926;2022-12-11T14:49:17;1.10;99.90
47336;DHT22;33068;51.990;5.926;2022-12-11T14:51:50;1.10;99.90
47336;DHT22;33068;51.990;5.926;2022-12-11T14:54:25;1.00;99.90
47336;DHT22;33068;51.990;5.926;2022-12-11T14:56:53;1.00;99.90
47336;DHT22;33068;51.990;5.926;2022-12-11T14:59:24;1.00;99.90
47336;DHT22;33068;51.990;5.926;2022-12-11T15:02:00;1.00;99.90
47336;DHT22;33068;51.990;5.926;2022-12-11T15:04:30;1.00;99.90
47336;DHT22;33068;51.990;5.926;2022-12-11T15:06:59;1.00;99.90
47336;DHT22;33068;51.990;5.926;2022-12-11T15:09:29;1.00;99.90
47336;DHT22;33068;51.990;5.926;2022-12-11T15:12:08;0.90;99.90
47336;DHT22;33068;51.990;5.926;2022-12-11T15:14:41;0.90;99.90
47336;DHT22;33068;51.990;5.926;2022-12-11T15:17:12;0.90;99.90
47336;DHT22;33068;51.990;5.926;2022-12-11T15:19:40;0.90;99.90
47336;DHT22;33068;51.990;5.926;2022-12-11T15:22:14;0.80;99.90
47336;DHT22;33068;51.990;5.926;2022-12-11T15:24:43;0.80;99.90
47336;DHT22;33068;51.990;5.926;2022-12-11T15:27:23;0.90;99.90
47336;DHT22;33068;51.990;5.926;2022-12-11T15:29:50;0.90;99.90
47336;DHT22;33068;51.990;5.926;2022-12-11T15:32:19;0.90;99.90
47336;DHT22;33068;51.990;5.926;2022-12-11T15:34:47;0.80;99.90
47336;DHT22;33068;51.990;5.926;2022-12-11T15:37:19;0.80;99.90
47336;DHT22;33068;51.990;5.926;2022-12-11T15:39:46;0.80;99.90
47336;DHT22;33068;51.990;5.926;2022-12-11T15:42:17;0.70;99.90
47336;DHT22;33068;51.990;5.926;2022-12-11T15:44:46;0.80;99.90
47336;DHT22;33068;51.990;5.926;2022-12-11T15:47:14;0.80;99.90
47336;DHT22;33068;51.990;5.926;2022-12-11T15:49:41;0.90;99.90
47336;DHT22;33068;51.990;5.926;2022-12-11T15:52:08;0.90;99.90
47336;DHT22;33068;51.990;5.926;2022-12-11T15:54:37;0.90;99.90
47336;DHT22;33068;51.990;5.926;2022-12-11T15:57:06;0.90;99.90
47336;DHT22;33068;51.990;5.926;2022-12-11T15:59:38;0.80;99.90
47336;DHT22;33068;51.990;5.926;2022-12-11T16:02:09;0.80;99.90
47336;DHT22;33068;51.990;5.926;2022-12-11T16:04:37;0.80;99.90
47336;DHT22;33068;51.990;5.926;2022-12-11T16:07:04;0.90;99.90
47336;DHT22;33068;51.990;5.926;2022-12-11T16:09:32;0.90;99.90
47336;DHT22;33068;51.990;5.926;2022-12-11T16:12:01;0.90;99.90